sensor_id;sensor_type;location;lat;lon;timestamp;temperature;humidity
34815;DHT22;21030;53.912;15.214;2023-05-07T00:02:06;34.50;22.20
34815;DHT22;21030;53.912;15.214;2023-05-07T00:04:34;34.60;22.70
34815;DHT22;21030;53.912;15.214;2023-05-07T00:07:04;34.60;21.90
34815;DHT22;21030;53.912;15.214;2023-05-07T00:09:32;34.60;21.90
34815;DHT22;21030;53.912;15.214;2023-05-07T00:11:59;34.60;21.80
34815;DHT22;21030;53.912;15.214;2023-05-07T00:14:26;34.60;21.80
34815;DHT22;21030;53.912;15.214;2023-05-07T00:16:53;34.70;21.70
34815;DHT22;21030;53.912;15.214;2023-05-07T00:19:20;34.70;21.70
34815;DHT22;21030;53.912;15.214;2023-05-07T00:21:48;35.10;21.70
34815;DHT22;21030;53.912;15.214;2023-05-07T00:24:15;34.80;21.50
34815;DHT22;21030;53.912;15.214;2023-05-07T00:26:42;34.80;21.40
34815;DHT22;21030;53.912;15.214;2023-05-07T00:29:09;35.10;21.60
34815;DHT22;21030;53.912;15.214;2023-05-07T00:31:36;35.10;21.30
34815;DHT22;21030;53.912;15.214;2023-05-07T00:34:03;35.10;21.20
34815;DHT22;21030;53.912;15.214;2023-05-07T00:36:30;35.20;21.20
34815;DHT22;21030;53.912;15.214;2023-05-07T00:38:59;35.20;21.10
34815;DHT22;21030;53.912;15.214;2023-05-07T00:41:27;35.20;21.00
34815;DHT22;21030;53.912;15.214;2023-05-07T00:43:54;35.20;20.70
34815;DHT22;21030;53.912;15.214;2023-05-07T00:46:21;35.30;20.80
34815;DHT22;21030;53.912;15.214;2023-05-07T00:48:53;34.20;20.60
34815;DHT22;21030;53.912;15.214;2023-05-07T00:51:20;33.70;21.00
34815;DHT22;21030;53.912;15.214;2023-05-07T00:53:47;33.10;21.20
34815;DHT22;21030;53.912;15.214;2023-05-07T00:56:14;32.90;21.90
34815;DHT22;21030;53.912;15.214;2023-05-07T00:58:42;32.70;21.50
34815;DHT22;21030;53.912;15.214;2023-05-07T01:01:09;32.50;21.80
34815;DHT22;21030;53.912;15.214;2023-05-07T01:03:36;32.60;21.70
34815;DHT22;21030;53.912;15.214;2023-05-07T01:06:04;33.20;21.70
34815;DHT22;21030;53.912;15.214;2023-05-07T01:08:34;33.40;21.40
34815;DHT22;21030;53.912;15.214;2023-05-07T01:11:02;33.30;21.40
34815;DHT22;21030;53.912;15.214;2023-05-07T01:13:30;33.70;21.20
34815;DHT22;21030;53.912;15.214;2023-05-07T01:15:57;33.50;21.20
34815;DHT22;21030;53.912;15.214;2023-05-07T01:18:25;33.40;21.10
34815;DHT22;21030;53.912;15.214;2023-05-07T01:20:54;32.90;21.10
34815;DHT22;21030;53.912;15.214;2023-05-07T01:23:22;33.10;21.40
34815;DHT22;21030;53.912;15.214;2023-05-07T01:25:54;33.50;21.40
34815;DHT22;21030;53.912;15.214;2023-05-07T01:28:22;33.30;21.10
34815;DHT22;21030;53.912;15.214;2023-05-07T01:30:55;33.50;21.00
34815;DHT22;21030;53.912;15.214;2023-05-07T01:33:23;33.50;21.00
34815;DHT22;21030;53.912;15.214;2023-05-07T01:35:53;33.30;20.70
34815;DHT22;21030;53.912;15.214;2023-05-07T01:38:22;33.40;20.90
34815;DHT22;21030;53.912;15.214;2023-05-07T01:40:50;33.40;21.00
34815;DHT22;21030;53.912;15.214;2023-05-07T01:43:17;33.50;20.90
34815;DHT22;21030;53.912;15.214;2023-05-07T01:45:45;33.70;20.90
34815;DHT22;21030;53.912;15.214;2023-05-07T01:48:14;33.70;20.60
34815;DHT22;21030;53.912;15.214;2023-05-07T01:50:43;33.90;20.60
34815;DHT22;21030;53.912;15.214;2023-05-07T01:53:11;33.70;20.70
34815;DHT22;21030;53.912;15.214;2023-05-07T01:55:38;33.90;20.70
34815;DHT22;21030;53.912;15.214;2023-05-07T01:58:05;34.00;20.40
34815;DHT22;21030;53.912;15.214;2023-05-07T02:00:32;34.20;20.60
34815;DHT22;21030;53.912;15.214;2023-05-07T02:02:59;34.40;20.60
34815;DHT22;21030;53.912;15.214;2023-05-07T02:05:27;34.80;20.50
34815;DHT22;21030;53.912;15.214;2023-05-07T02:07:54;35.00;20.40
34815;DHT22;21030;53.912;15.214;2023-05-07T02:10:21;35.00;20.20
34815;DHT22;21030;53.912;15.214;2023-05-07T02:12:48;35.10;20.10
34815;DHT22;21030;53.912;15.214;2023-05-07T02:15:15;35.10;20.10
34815;DHT22;21030;53.912;15.214;2023-05-07T02:18:05;35.30;20.30
34815;DHT22;21030;53.912;15.214;2023-05-07T02:20:33;35.30;20.10
34815;DHT22;21030;53.912;15.214;2023-05-07T02:23:00;35.20;20.10
34815;DHT22;21030;53.912;15.214;2023-05-07T02:25:27;35.20;20.00
34815;DHT22;21030;53.912;15.214;2023-05-07T02:27:55;35.30;19.90
34815;DHT22;21030;53.912;15.214;2023-05-07T02:30:22;35.20;19.90
34815;DHT22;21030;53.912;15.214;2023-05-07T02:32:50;35.20;20.00
34815;DHT22;21030;53.912;15.214;2023-05-07T02:35:17;35.00;19.90
34815;DHT22;21030;53.912;15.214;2023-05-07T02:37:44;34.80;19.90
34815;DHT22;21030;53.912;15.214;2023-05-07T02:40:12;34.70;19.90
34815;DHT22;21030;53.912;15.214;2023-05-07T02:42:39;34.70;20.00
34815;DHT22;21030;53.912;15.214;2023-05-07T02:45:06;34.40;20.00
34815;DHT22;21030;53.912;15.214;2023-05-07T02:47:34;34.30;20.00
34815;DHT22;21030;53.912;15.214;2023-05-07T02:50:01;34.40;20.20
34815;DHT22;21030;53.912;15.214;2023-05-07T02:52:28;34.20;20.10
34815;DHT22;21030;53.912;15.214;2023-05-07T02:54:55;34.40;20.30
34815;DHT22;21030;53.912;15.214;2023-05-07T02:57:22;34.10;20.10
34815;DHT22;21030;53.912;15.214;2023-05-07T02:59:49;33.90;20.20
34815;DHT22;21030;53.912;15.214;2023-05-07T03:02:18;33.30;20.40
34815;DHT22;21030;53.912;15.214;2023-05-07T03:04:45;32.90;20.50
34815;DHT22;21030;53.912;15.214;2023-05-07T03:07:13;32.60;20.80
34815;DHT22;21030;53.912;15.214;2023-05-07T03:09:41;32.30;20.90
34815;DHT22;21030;53.912;15.214;2023-05-07T03:12:08;32.00;21.00
34815;DHT22;21030;53.912;15.214;2023-05-07T03:14:35;32.30;21.00
34815;DHT22;21030;53.912;15.214;2023-05-07T03:17:03;32.00;21.00
34815;DHT22;21030;53.912;15.214;2023-05-07T03:19:30;32.20;21.00
34815;DHT22;21030;53.912;15.214;2023-05-07T03:21:57;32.50;21.00
34815;DHT22;21030;53.912;15.214;2023-05-07T03:24:24;32.40;20.80
34815;DHT22;21030;53.912;15.214;2023-05-07T03:26:51;32.60;20.90
34815;DHT22;21030;53.912;15.214;2023-05-07T03:29:19;32.90;20.80
34815;DHT22;21030;53.912;15.214;2023-05-07T03:31:46;32.90;20.70
34815;DHT22;21030;53.912;15.214;2023-05-07T03:34:13;33.20;20.70
34815;DHT22;21030;53.912;15.214;2023-05-07T03:36:40;33.60;20.60
34815;DHT22;21030;53.912;15.214;2023-05-07T03:39:07;33.80;20.40
34815;DHT22;21030;53.912;15.214;2023-05-07T03:41:35;33.60;20.20
34815;DHT22;21030;53.912;15.214;2023-05-07T03:44:02;33.80;20.40
34815;DHT22;21030;53.912;15.214;2023-05-07T03:46:29;33.90;20.30
34815;DHT22;21030;53.912;15.214;2023-05-07T03:48:56;34.00;20.20
34815;DHT22;21030;53.912;15.214;2023-05-07T03:51:23;34.10;20.20
34815;DHT22;21030;53.912;15.214;2023-05-07T03:53:50;34.20;20.20
34815;DHT22;21030;53.912;15.214;2023-05-07T03:56:19;33.60;20.00
34815;DHT22;21030;53.912;15.214;2023-05-07T03:58:48;32.60;20.30
34815;DHT22;21030;53.912;15.214;2023-05-07T04:01:15;31.80;20.70
34815;DHT22;21030;53.912;15.214;2023-05-07T04:03:42;31.50;21.20
34815;DHT22;21030;53.912;15.214;2023-05-07T04:06:09;31.80;21.00
34815;DHT22;21030;53.912;15.214;2023-05-07T04:08:37;31.20;21.10
34815;DHT22;21030;53.912;15.214;2023-05-07T04:11:04;31.50;21.20
34815;DHT22;21030;53.912;15.214;2023-05-07T04:13:32;31.20;21.20
34815;DHT22;21030;53.912;15.214;2023-05-07T04:16:02;31.10;21.50
34815;DHT22;21030;53.912;15.214;2023-05-07T04:18:29;31.10;21.60
34815;DHT22;21030;53.912;15.214;2023-05-07T04:20:56;31.20;21.20
34815;DHT22;21030;53.912;15.214;2023-05-07T04:23:23;31.10;21.50
34815;DHT22;21030;53.912;15.214;2023-05-07T04:25:51;31.00;21.60
34815;DHT22;21030;53.912;15.214;2023-05-07T04:28:18;31.00;21.20
34815;DHT22;21030;53.912;15.214;2023-05-07T04:30:45;31.20;21.50
34815;DHT22;21030;53.912;15.214;2023-05-07T04:33:14;31.40;21.60
34815;DHT22;21030;53.912;15.214;2023-05-07T04:35:43;31.50;21.30
34815;DHT22;21030;53.912;15.214;2023-05-07T04:38:10;31.90;21.10
34815;DHT22;21030;53.912;15.214;2023-05-07T04:40:37;32.60;21.10
34815;DHT22;21030;53.912;15.214;2023-05-07T04:43:05;32.90;20.70
34815;DHT22;21030;53.912;15.214;2023-05-07T04:45:34;32.40;20.50
34815;DHT22;21030;53.912;15.214;2023-05-07T04:48:02;31.80;20.80
34815;DHT22;21030;53.912;15.214;2023-05-07T04:50:29;32.50;21.00
34815;DHT22;21030;53.912;15.214;2023-05-07T04:52:57;32.70;20.80
34815;DHT22;21030;53.912;15.214;2023-05-07T04:55:24;32.70;20.80
34815;DHT22;21030;53.912;15.214;2023-05-07T04:57:52;33.20;20.90
34815;DHT22;21030;53.912;15.214;2023-05-07T05:00:19;33.10;20.70
34815;DHT22;21030;53.912;15.214;2023-05-07T05:02:47;32.60;21.20
34815;DHT22;21030;53.912;15.214;2023-05-07T05:05:14;32.60;20.90
34815;DHT22;21030;53.912;15.214;2023-05-07T05:07:41;32.50;21.10
34815;DHT22;21030;53.912;15.214;2023-05-07T05:10:08;32.10;21.10
34815;DHT22;21030;53.912;15.214;2023-05-07T05:12:36;32.50;21.10
34815;DHT22;21030;53.912;15.214;2023-05-07T05:15:04;32.50;21.10
34815;DHT22;21030;53.912;15.214;2023-05-07T05:17:31;31.60;20.90
34815;DHT22;21030;53.912;15.214;2023-05-07T05:19:58;31.90;21.30
34815;DHT22;21030;53.912;15.214;2023-05-07T05:22:25;32.40;21.30
34815;DHT22;21030;53.912;15.214;2023-05-07T05:24:52;32.20;21.10
34815;DHT22;21030;53.912;15.214;2023-05-07T05:27:19;32.80;21.10
34815;DHT22;21030;53.912;15.214;2023-05-07T05:29:46;32.60;21.10
34815;DHT22;21030;53.912;15.214;2023-05-07T05:32:13;32.70;21.30
34815;DHT22;21030;53.912;15.214;2023-05-07T05:34:40;33.20;21.20
34815;DHT22;21030;53.912;15.214;2023-05-07T05:37:07;33.70;21.30
34815;DHT22;21030;53.912;15.214;2023-05-07T05:39:34;34.10;20.90
34815;DHT22;21030;53.912;15.214;2023-05-07T05:42:01;34.30;20.70
34815;DHT22;21030;53.912;15.214;2023-05-07T05:44:28;35.30;20.60
34815;DHT22;21030;53.912;15.214;2023-05-07T05:46:55;35.20;20.20
34815;DHT22;21030;53.912;15.214;2023-05-07T05:49:24;33.10;19.60
34815;DHT22;21030;53.912;15.214;2023-05-07T05:51:51;33.90;21.00
34815;DHT22;21030;53.912;15.214;2023-05-07T05:54:18;33.90;20.70
34815;DHT22;21030;53.912;15.214;2023-05-07T05:56:46;33.60;20.70
34815;DHT22;21030;53.912;15.214;2023-05-07T05:59:13;34.10;20.80
34815;DHT22;21030;53.912;15.214;2023-05-07T06:01:40;32.30;21.00
34815;DHT22;21030;53.912;15.214;2023-05-07T06:04:07;33.80;21.30
34815;DHT22;21030;53.912;15.214;2023-05-07T06:06:35;33.80;21.00
34815;DHT22;21030;53.912;15.214;2023-05-07T06:09:02;34.00;20.90
34815;DHT22;21030;53.912;15.214;2023-05-07T06:11:29;34.30;20.70
34815;DHT22;21030;53.912;15.214;2023-05-07T06:13:56;34.90;20.60
34815;DHT22;21030;53.912;15.214;2023-05-07T06:16:25;34.70;20.40
34815;DHT22;21030;53.912;15.214;2023-05-07T06:18:52;34.90;20.60
34815;DHT22;21030;53.912;15.214;2023-05-07T06:21:19;35.10;20.10
34815;DHT22;21030;53.912;15.214;2023-05-07T06:23:46;35.20;20.40
34815;DHT22;21030;53.912;15.214;2023-05-07T06:26:13;35.00;20.30
34815;DHT22;21030;53.912;15.214;2023-05-07T06:28:40;35.10;20.10
34815;DHT22;21030;53.912;15.214;2023-05-07T06:31:18;34.80;19.70
34815;DHT22;21030;53.912;15.214;2023-05-07T06:33:48;35.40;20.30
34815;DHT22;21030;53.912;15.214;2023-05-07T06:36:15;36.40;20.00
34815;DHT22;21030;53.912;15.214;2023-05-07T06:38:45;36.70;19.70
34815;DHT22;21030;53.912;15.214;2023-05-07T06:41:12;36.00;19.10
34815;DHT22;21030;53.912;15.214;2023-05-07T06:43:39;36.20;19.20
34815;DHT22;21030;53.912;15.214;2023-05-07T06:46:06;36.20;18.80
34815;DHT22;21030;53.912;15.214;2023-05-07T06:48:35;36.00;18.80
34815;DHT22;21030;53.912;15.214;2023-05-07T06:51:03;35.60;19.30
34815;DHT22;21030;53.912;15.214;2023-05-07T06:53:30;36.40;19.30
34815;DHT22;21030;53.912;15.214;2023-05-07T06:55:57;35.90;19.20
34815;DHT22;21030;53.912;15.214;2023-05-07T06:58:24;36.40;18.90
34815;DHT22;21030;53.912;15.214;2023-05-07T07:00:51;37.20;18.60
34815;DHT22;21030;53.912;15.214;2023-05-07T07:03:18;36.10;18.40
34815;DHT22;21030;53.912;15.214;2023-05-07T07:05:52;35.10;18.30
34815;DHT22;21030;53.912;15.214;2023-05-07T07:08:19;35.50;18.80
34815;DHT22;21030;53.912;15.214;2023-05-07T07:10:48;37.30;19.10
34815;DHT22;21030;53.912;15.214;2023-05-07T07:13:15;37.60;18.30
34815;DHT22;21030;53.912;15.214;2023-05-07T07:15:43;38.90;18.10
34815;DHT22;21030;53.912;15.214;2023-05-07T07:18:10;38.50;17.90
34815;DHT22;21030;53.912;15.214;2023-05-07T07:20:37;38.90;17.40
34815;DHT22;21030;53.912;15.214;2023-05-07T07:23:04;36.90;16.90
34815;DHT22;21030;53.912;15.214;2023-05-07T07:25:32;37.10;18.00
34815;DHT22;21030;53.912;15.214;2023-05-07T07:27:59;37.40;17.20
34815;DHT22;21030;53.912;15.214;2023-05-07T07:30:27;38.00;17.40
34815;DHT22;21030;53.912;15.214;2023-05-07T07:32:54;36.10;16.90
34815;DHT22;21030;53.912;15.214;2023-05-07T07:35:23;36.90;17.30
34815;DHT22;21030;53.912;15.214;2023-05-07T07:37:51;36.00;17.10
34815;DHT22;21030;53.912;15.214;2023-05-07T07:40:18;37.10;16.80
34815;DHT22;21030;53.912;15.214;2023-05-07T07:42:45;35.60;17.00
34815;DHT22;21030;53.912;15.214;2023-05-07T07:45:12;37.30;17.00
34815;DHT22;21030;53.912;15.214;2023-05-07T07:47:40;38.20;15.70
34815;DHT22;21030;53.912;15.214;2023-05-07T07:50:07;37.10;15.20
34815;DHT22;21030;53.912;15.214;2023-05-07T07:52:35;36.30;15.50
34815;DHT22;21030;53.912;15.214;2023-05-07T07:55:04;37.40;15.30
34815;DHT22;21030;53.912;15.214;2023-05-07T07:57:31;36.80;15.30
34815;DHT22;21030;53.912;15.214;2023-05-07T07:59:58;36.00;15.20
34815;DHT22;21030;53.912;15.214;2023-05-07T08:02:25;37.30;15.30
34815;DHT22;21030;53.912;15.214;2023-05-07T08:04:53;38.20;15.40
34815;DHT22;21030;53.912;15.214;2023-05-07T08:07:20;38.30;14.40
34815;DHT22;21030;53.912;15.214;2023-05-07T08:09:49;37.60;13.90
34815;DHT22;21030;53.912;15.214;2023-05-07T08:12:16;37.00;14.30
34815;DHT22;21030;53.912;15.214;2023-05-07T08:14:43;35.40;14.10
34815;DHT22;21030;53.912;15.214;2023-05-07T08:17:11;35.50;14.60
34815;DHT22;21030;53.912;15.214;2023-05-07T08:19:38;35.80;14.60
34815;DHT22;21030;53.912;15.214;2023-05-07T08:22:07;36.10;14.70
34815;DHT22;21030;53.912;15.214;2023-05-07T08:24:34;37.30;15.00
34815;DHT22;21030;53.912;15.214;2023-05-07T08:27:02;36.60;14.10
34815;DHT22;21030;53.912;15.214;2023-05-07T08:29:29;36.60;14.70
34815;DHT22;21030;53.912;15.214;2023-05-07T08:31:56;37.20;14.20
34815;DHT22;21030;53.912;15.214;2023-05-07T08:34:23;36.20;13.10
34815;DHT22;21030;53.912;15.214;2023-05-07T08:37:01;35.30;13.00
34815;DHT22;21030;53.912;15.214;2023-05-07T08:39:30;35.30;14.10
34815;DHT22;21030;53.912;15.214;2023-05-07T08:42:00;36.20;14.40
34815;DHT22;21030;53.912;15.214;2023-05-07T08:44:28;36.60;14.20
34815;DHT22;21030;53.912;15.214;2023-05-07T08:47:01;35.80;13.70
34815;DHT22;21030;53.912;15.214;2023-05-07T08:49:28;35.50;13.90
34815;DHT22;21030;53.912;15.214;2023-05-07T08:51:58;36.90;14.10
34815;DHT22;21030;53.912;15.214;2023-05-07T08:54:26;37.00;13.80
34815;DHT22;21030;53.912;15.214;2023-05-07T08:56:54;37.40;13.40
34815;DHT22;21030;53.912;15.214;2023-05-07T08:59:21;38.00;13.30
34815;DHT22;21030;53.912;15.214;2023-05-07T09:01:48;36.30;13.70
34815;DHT22;21030;53.912;15.214;2023-05-07T09:04:16;37.70;13.60
34815;DHT22;21030;53.912;15.214;2023-05-07T09:06:44;37.70;13.80
34815;DHT22;21030;53.912;15.214;2023-05-07T09:09:14;38.00;13.30
34815;DHT22;21030;53.912;15.214;2023-05-07T09:11:44;38.00;13.50
34815;DHT22;21030;53.912;15.214;2023-05-07T09:14:11;38.60;13.70
34815;DHT22;21030;53.912;15.214;2023-05-07T09:16:38;38.70;13.80
34815;DHT22;21030;53.912;15.214;2023-05-07T09:19:05;38.70;13.10
34815;DHT22;21030;53.912;15.214;2023-05-07T09:21:33;38.90;13.30
34815;DHT22;21030;53.912;15.214;2023-05-07T09:24:00;39.00;13.50
34815;DHT22;21030;53.912;15.214;2023-05-07T09:26:27;37.10;13.20
34815;DHT22;21030;53.912;15.214;2023-05-07T09:28:55;37.10;14.30
34815;DHT22;21030;53.912;15.214;2023-05-07T09:31:22;37.90;14.40
34815;DHT22;21030;53.912;15.214;2023-05-07T09:33:50;38.30;14.40
34815;DHT22;21030;53.912;15.214;2023-05-07T09:36:19;38.80;14.20
34815;DHT22;21030;53.912;15.214;2023-05-07T09:38:46;39.50;13.90
34815;DHT22;21030;53.912;15.214;2023-05-07T09:41:13;39.00;13.20
34815;DHT22;21030;53.912;15.214;2023-05-07T09:43:40;39.00;13.20
34815;DHT22;21030;53.912;15.214;2023-05-07T09:46:14;38.90;13.70
34815;DHT22;21030;53.912;15.214;2023-05-07T09:48:44;38.30;13.70
34815;DHT22;21030;53.912;15.214;2023-05-07T09:51:30;36.90;13.20
34815;DHT22;21030;53.912;15.214;2023-05-07T09:53:58;36.30;13.80
34815;DHT22;21030;53.912;15.214;2023-05-07T09:56:30;37.50;14.10
34815;DHT22;21030;53.912;15.214;2023-05-07T09:59:00;37.30;13.80
34815;DHT22;21030;53.912;15.214;2023-05-07T10:01:27;38.30;13.70
34815;DHT22;21030;53.912;15.214;2023-05-07T10:03:54;38.40;13.50
34815;DHT22;21030;53.912;15.214;2023-05-07T10:06:23;39.40;13.80
34815;DHT22;21030;53.912;15.214;2023-05-07T10:08:52;38.70;13.20
34815;DHT22;21030;53.912;15.214;2023-05-07T10:11:19;38.80;13.40
34815;DHT22;21030;53.912;15.214;2023-05-07T10:13:48;39.70;13.70
34815;DHT22;21030;53.912;15.214;2023-05-07T10:16:15;39.50;13.30
34815;DHT22;21030;53.912;15.214;2023-05-07T10:18:43;40.60;13.70
34815;DHT22;21030;53.912;15.214;2023-05-07T10:21:20;38.80;13.00
34815;DHT22;21030;53.912;15.214;2023-05-07T10:23:55;39.50;13.40
34815;DHT22;21030;53.912;15.214;2023-05-07T10:26:24;38.90;13.20
34815;DHT22;21030;53.912;15.214;2023-05-07T10:28:56;39.10;13.30
34815;DHT22;21030;53.912;15.214;2023-05-07T10:34:37;38.30;13.40
34815;DHT22;21030;53.912;15.214;2023-05-07T10:37:05;38.40;13.20
34815;DHT22;21030;53.912;15.214;2023-05-07T10:39:35;37.90;13.50
34815;DHT22;21030;53.912;15.214;2023-05-07T10:42:10;38.90;13.70
34815;DHT22;21030;53.912;15.214;2023-05-07T10:44:38;40.20;13.70
34815;DHT22;21030;53.912;15.214;2023-05-07T10:47:06;40.20;13.30
34815;DHT22;21030;53.912;15.214;2023-05-07T10:52:13;39.50;13.10
34815;DHT22;21030;53.912;15.214;2023-05-07T10:54:45;39.80;13.40
34815;DHT22;21030;53.912;15.214;2023-05-07T10:57:34;39.60;13.00
34815;DHT22;21030;53.912;15.214;2023-05-07T11:03:05;40.80;13.40
34815;DHT22;21030;53.912;15.214;2023-05-07T11:05:34;39.90;12.80
34815;DHT22;21030;53.912;15.214;2023-05-07T11:08:05;39.70;12.70
34815;DHT22;21030;53.912;15.214;2023-05-07T11:11:10;38.70;13.10
34815;DHT22;21030;53.912;15.214;2023-05-07T11:13:45;38.20;13.60
34815;DHT22;21030;53.912;15.214;2023-05-07T11:16:20;38.80;13.50
34815;DHT22;21030;53.912;15.214;2023-05-07T11:18:50;39.60;13.50
34815;DHT22;21030;53.912;15.214;2023-05-07T11:24:06;39.40;13.40
34815;DHT22;21030;53.912;15.214;2023-05-07T11:29:31;38.30;13.40
34815;DHT22;21030;53.912;15.214;2023-05-07T11:31:58;38.00;13.40
34815;DHT22;21030;53.912;15.214;2023-05-07T11:34:27;38.10;13.60
34815;DHT22;21030;53.912;15.214;2023-05-07T11:36:55;37.50;13.60
34815;DHT22;21030;53.912;15.214;2023-05-07T11:39:27;38.20;13.80
34815;DHT22;21030;53.912;15.214;2023-05-07T11:41:55;38.40;14.10
34815;DHT22;21030;53.912;15.214;2023-05-07T11:44:22;39.70;13.90
34815;DHT22;21030;53.912;15.214;2023-05-07T11:46:49;39.10;13.20
34815;DHT22;21030;53.912;15.214;2023-05-07T11:49:18;39.40;13.70
34815;DHT22;21030;53.912;15.214;2023-05-07T11:51:46;39.10;13.50
34815;DHT22;21030;53.912;15.214;2023-05-07T11:54:16;39.40;13.60
34815;DHT22;21030;53.912;15.214;2023-05-07T11:56:44;39.40;13.80
34815;DHT22;21030;53.912;15.214;2023-05-07T11:59:17;39.30;13.40
34815;DHT22;21030;53.912;15.214;2023-05-07T12:01:47;37.90;13.50
34815;DHT22;21030;53.912;15.214;2023-05-07T12:04:19;38.60;13.70
34815;DHT22;21030;53.912;15.214;2023-05-07T12:06:47;39.00;13.80
34815;DHT22;21030;53.912;15.214;2023-05-07T12:09:15;39.70;13.60
34815;DHT22;21030;53.912;15.214;2023-05-07T12:11:45;39.70;13.80
34815;DHT22;21030;53.912;15.214;2023-05-07T12:14:13;39.40;13.60
34815;DHT22;21030;53.912;15.214;2023-05-07T12:16:42;38.80;13.60
34815;DHT22;21030;53.912;15.214;2023-05-07T12:19:12;39.00;13.60
34815;DHT22;21030;53.912;15.214;2023-05-07T12:21:41;38.80;13.60
34815;DHT22;21030;53.912;15.214;2023-05-07T12:24:09;39.50;13.90
34815;DHT22;21030;53.912;15.214;2023-05-07T12:26:44;40.60;14.10
34815;DHT22;21030;53.912;15.214;2023-05-07T12:29:11;41.00;13.70
34815;DHT22;21030;53.912;15.214;2023-05-07T12:31:41;40.50;12.90
34815;DHT22;21030;53.912;15.214;2023-05-07T12:34:10;39.70;12.70
34815;DHT22;21030;53.912;15.214;2023-05-07T12:36:38;41.30;13.00
34815;DHT22;21030;53.912;15.214;2023-05-07T12:39:07;41.30;12.80
34815;DHT22;21030;53.912;15.214;2023-05-07T12:41:56;41.40;12.70
34815;DHT22;21030;53.912;15.214;2023-05-07T12:44:35;40.60;12.60
34815;DHT22;21030;53.912;15.214;2023-05-07T12:47:02;40.40;12.80
34815;DHT22;21030;53.912;15.214;2023-05-07T12:49:29;40.50;13.20
34815;DHT22;21030;53.912;15.214;2023-05-07T12:51:56;41.10;13.00
34815;DHT22;21030;53.912;15.214;2023-05-07T12:54:38;41.50;13.00
34815;DHT22;21030;53.912;15.214;2023-05-07T12:57:09;40.90;12.80
34815;DHT22;21030;53.912;15.214;2023-05-07T12:59:39;41.60;12.50
34815;DHT22;21030;53.912;15.214;2023-05-07T13:02:07;42.40;12.70
34815;DHT22;21030;53.912;15.214;2023-05-07T13:04:35;41.50;12.20
34815;DHT22;21030;53.912;15.214;2023-05-07T13:07:03;40.60;12.00
34815;DHT22;21030;53.912;15.214;2023-05-07T13:09:31;40.30;12.70
34815;DHT22;21030;53.912;15.214;2023-05-07T13:11:58;42.00;12.90
34815;DHT22;21030;53.912;15.214;2023-05-07T13:14:28;41.60;13.00
34815;DHT22;21030;53.912;15.214;2023-05-07T13:16:55;41.10;12.80
34815;DHT22;21030;53.912;15.214;2023-05-07T13:19:22;40.80;12.70
34815;DHT22;21030;53.912;15.214;2023-05-07T13:21:49;38.90;12.10
34815;DHT22;21030;53.912;15.214;2023-05-07T13:24:16;39.60;13.10
34815;DHT22;21030;53.912;15.214;2023-05-07T13:26:44;39.10;13.00
34815;DHT22;21030;53.912;15.214;2023-05-07T13:29:14;38.30;13.20
34815;DHT22;21030;53.912;15.214;2023-05-07T13:31:41;39.20;13.60
34815;DHT22;21030;53.912;15.214;2023-05-07T13:34:11;39.60;13.30
34815;DHT22;21030;53.912;15.214;2023-05-07T13:36:38;38.90;13.10
34815;DHT22;21030;53.912;15.214;2023-05-07T13:39:08;40.60;14.20
34815;DHT22;21030;53.912;15.214;2023-05-07T13:41:35;39.40;12.80
34815;DHT22;21030;53.912;15.214;2023-05-07T13:44:02;39.70;13.10
34815;DHT22;21030;53.912;15.214;2023-05-07T13:46:29;39.40;13.00
34815;DHT22;21030;53.912;15.214;2023-05-07T13:48:57;39.80;13.00
34815;DHT22;21030;53.912;15.214;2023-05-07T13:51:24;40.30;13.00
34815;DHT22;21030;53.912;15.214;2023-05-07T13:53:51;40.30;12.50
34815;DHT22;21030;53.912;15.214;2023-05-07T13:56:19;39.60;12.60
34815;DHT22;21030;53.912;15.214;2023-05-07T13:58:46;39.20;12.70
34815;DHT22;21030;53.912;15.214;2023-05-07T14:01:26;38.50;12.40
34815;DHT22;21030;53.912;15.214;2023-05-07T14:03:53;37.80;13.40
34815;DHT22;21030;53.912;15.214;2023-05-07T14:06:21;38.20;13.50
34815;DHT22;21030;53.912;15.214;2023-05-07T14:08:48;39.10;13.70
34815;DHT22;21030;53.912;15.214;2023-05-07T14:11:15;39.80;13.60
34815;DHT22;21030;53.912;15.214;2023-05-07T14:13:42;39.80;13.40
34815;DHT22;21030;53.912;15.214;2023-05-07T14:16:09;38.40;12.90
34815;DHT22;21030;53.912;15.214;2023-05-07T14:18:36;39.00;13.30
34815;DHT22;21030;53.912;15.214;2023-05-07T14:21:05;38.80;13.20
34815;DHT22;21030;53.912;15.214;2023-05-07T14:23:36;38.20;13.10
34815;DHT22;21030;53.912;15.214;2023-05-07T14:26:03;36.80;13.30
34815;DHT22;21030;53.912;15.214;2023-05-07T14:28:32;38.30;14.00
34815;DHT22;21030;53.912;15.214;2023-05-07T14:30:59;38.40;13.40
34815;DHT22;21030;53.912;15.214;2023-05-07T14:33:26;38.20;13.40
34815;DHT22;21030;53.912;15.214;2023-05-07T14:35:53;39.10;13.70
34815;DHT22;21030;53.912;15.214;2023-05-07T14:38:21;37.80;13.30
34815;DHT22;21030;53.912;15.214;2023-05-07T14:40:48;38.40;13.70
34815;DHT22;21030;53.912;15.214;2023-05-07T14:43:17;38.40;13.90
34815;DHT22;21030;53.912;15.214;2023-05-07T14:45:45;39.00;13.70
34815;DHT22;21030;53.912;15.214;2023-05-07T14:48:12;38.90;13.60
34815;DHT22;21030;53.912;15.214;2023-05-07T14:50:42;39.30;13.70
34815;DHT22;21030;53.912;15.214;2023-05-07T14:53:09;38.20;13.40
34815;DHT22;21030;53.912;15.214;2023-05-07T14:55:38;38.80;13.70
34815;DHT22;21030;53.912;15.214;2023-05-07T14:58:05;39.20;13.70
34815;DHT22;21030;53.912;15.214;2023-05-07T15:00:34;38.90;13.50
34815;DHT22;21030;53.912;15.214;2023-05-07T15:03:07;39.20;13.50
34815;DHT22;21030;53.912;15.214;2023-05-07T15:05:38;38.10;13.60
34815;DHT22;21030;53.912;15.214;2023-05-07T15:08:05;37.10;14.00
34815;DHT22;21030;53.912;15.214;2023-05-07T15:10:35;38.10;14.50
34815;DHT22;21030;53.912;15.214;2023-05-07T15:13:10;37.90;14.00
34815;DHT22;21030;53.912;15.214;2023-05-07T15:15:42;36.00;14.10
34815;DHT22;21030;53.912;15.214;2023-05-07T15:18:10;35.10;14.90
34815;DHT22;21030;53.912;15.214;2023-05-07T15:20:38;35.80;15.00
34815;DHT22;21030;53.912;15.214;2023-05-07T15:23:06;36.50;14.90
34815;DHT22;21030;53.912;15.214;2023-05-07T15:25:36;35.90;15.00
34815;DHT22;21030;53.912;15.214;2023-05-07T15:28:05;36.60;15.00
34815;DHT22;21030;53.912;15.214;2023-05-07T15:30:33;35.90;14.70
34815;DHT22;21030;53.912;15.214;2023-05-07T15:33:01;34.80;15.10
34815;DHT22;21030;53.912;15.214;2023-05-07T15:35:29;34.80;15.10
34815;DHT22;21030;53.912;15.214;2023-05-07T15:37:59;35.00;15.60